Time,TemperatureF,DewpointF,PressureIn,WindDirection,WindDirectionDegrees,WindSpeedMPH,WindSpeedGustMPH,Humidity,HourlyPrecipIn,Conditions,Clouds,dailyrainin,SoftwareType,DateUTC
2013-01-13 00:00:00,65.1,63.3,29.69,SSW,211,14.0,16.0,94,0.00,,---,0.00,VWS V14.01,2013-01-13 05:00:00,
2013-01-13 00:02:00,65.2,63.1,29.69,SSE,167,13.0,18.0,93,0.00,,---,0.00,VWS V14.01,2013-01-13 05:02:00,
2013-01-13 00:07:00,65.4,63.0,29.69,South,172,13.0,20.0,92,0.00,,---,0.00,VWS V14.01,2013-01-13 05:07:00,
2013-01-13 00:12:00,65.5,62.8,29.69,SW,219,14.0,21.0,91,0.00,,---,0.00,VWS V14.01,2013-01-13 05:12:00,
2013-01-13 00:17:00,65.4,62.7,29.68,SSE,155,10.0,21.0,91,0.00,,---,0.00,VWS V14.01,2013-01-13 05:17:00,
2013-01-13 00:22:00,65.2,62.5,29.68,SSE,159,12.0,21.0,91,0.00,,---,0.00,VWS V14.01,2013-01-13 05:22:00,
2013-01-13 00:27:00,65.2,62.8,29.67,SE,133,9.0,21.0,92,0.00,,---,0.00,VWS V14.01,2013-01-13 05:27:00,
2013-01-13 00:32:00,65.1,62.7,29.67,SSE,153,15.0,21.0,92,0.00,,---,0.00,VWS V14.01,2013-01-13 05:32:00,
2013-01-13 00:37:00,65.1,62.4,29.67,SSE,159,13.0,21.0,91,0.00,,---,0.00,VWS V14.01,2013-01-13 05:37:00,
2013-01-13 00:42:00,65.0,62.3,29.66,SSE,147,10.0,21.0,91,0.00,,---,0.00,VWS V14.01,2013-01-13 05:42:00,
2013-01-13 00:47:00,65.0,62.6,29.65,SE,138,16.0,21.0,92,0.00,,---,0.00,VWS V14.01,2013-01-13 05:47:00,
2013-01-13 00:52:00,65.2,62.5,29.64,SSE,152,20.0,27.0,91,0.00,,---,0.00,VWS V14.01,2013-01-13 05:52:00,
2013-01-13 00:57:00,65.3,62.6,29.64,SSE,150,12.0,27.0,91,0.00,,---,0.00,VWS V14.01,2013-01-13 05:57:00,
2013-01-13 01:00:00,65.3,62.6,29.63,SSE,160,18.0,27.0,91,0.00,,---,0.00,VWS V14.01,2013-01-13 06:00:00,
2013-01-13 01:02:00,65.3,62.6,29.63,SE,145,9.0,25.0,91,0.00,,---,0.00,VWS V14.01,2013-01-13 06:02:00,
2013-01-13 01:07:00,65.2,62.5,29.62,SE,125,16.0,25.0,91,0.01,,---,0.01,VWS V14.01,2013-01-13 06:07:00,
2013-01-13 01:12:00,65.1,62.4,29.62,SE,144,16.0,27.0,91,0.03,,---,0.03,VWS V14.01,2013-01-13 06:12:00,
2013-01-13 01:17:00,64.9,62.5,29.64,South,188,19.0,29.0,92,0.05,,---,0.05,VWS V14.01,2013-01-13 06:17:00,
2013-01-13 01:22:00,63.1,58.5,29.68,West,280,21.0,30.0,85,0.05,,---,0.06,VWS V14.01,2013-01-13 06:22:00,
2013-01-13 01:27:00,58.5,55.3,29.70,SW,236,15.0,30.0,89,0.31,,---,0.31,VWS V14.01,2013-01-13 06:27:00,
2013-01-13 01:32:00,56.0,53.7,29.70,WNW,290,8.0,30.0,92,0.42,,---,0.42,VWS V14.01,2013-01-13 06:32:00,
2013-01-13 01:37:00,54.7,53.0,29.70,WNW,301,10.0,30.0,94,0.44,,---,0.44,VWS V14.01,2013-01-13 06:37:00,
2013-01-13 01:42:00,53.8,52.4,29.71,NW,312,9.0,30.0,95,0.45,,---,0.45,VWS V14.01,2013-01-13 06:42:00,
2013-01-13 01:47:00,53.5,52.4,29.72,WNW,287,3.0,30.0,96,0.46,,---,0.46,VWS V14.01,2013-01-13 06:47:00,
2013-01-13 01:52:00,53.3,52.5,29.72,WNW,302,11.0,30.0,97,0.48,,---,0.48,VWS V14.01,2013-01-13 06:52:00,
2013-01-13 01:57:00,53.1,52.3,29.72,NW,309,8.0,30.0,97,0.49,,---,0.49,VWS V14.01,2013-01-13 06:57:00,
2013-01-13 02:00:00,53.0,52.2,29.73,NW,304,8.0,30.0,97,0.49,,---,0.49,VWS V14.01,2013-01-13 07:00:00,
2013-01-13 02:02:00,52.9,52.1,29.74,NW,309,10.0,14.0,97,0.50,,---,0.50,VWS V14.01,2013-01-13 07:02:00,
2013-01-13 02:08:00,52.5,51.7,29.74,WNW,290,12.0,17.0,97,0.51,,---,0.51,VWS V14.01,2013-01-13 07:08:00,
2013-01-13 02:13:00,51.6,50.5,29.74,WNW,298,9.0,17.0,96,0.51,,---,0.51,VWS V14.01,2013-01-13 07:13:00,
2013-01-13 02:18:00,50.5,49.4,29.74,NW,304,14.0,18.0,96,0.52,,---,0.52,VWS V14.01,2013-01-13 07:18:00,
2013-01-13 02:23:00,49.6,48.5,29.75,NW,326,9.0,18.0,96,0.53,,---,0.53,VWS V14.01,2013-01-13 07:23:00,
2013-01-13 02:28:00,49.1,48.0,29.75,WNW,292,6.0,18.0,96,0.54,,---,0.54,VWS V14.01,2013-01-13 07:28:00,
2013-01-13 02:33:00,48.4,47.3,29.76,NW,305,11.0,18.0,96,0.55,,---,0.55,VWS V14.01,2013-01-13 07:33:00,
2013-01-13 02:38:00,47.9,46.8,29.75,NW,315,7.0,18.0,96,0.55,,---,0.55,VWS V14.01,2013-01-13 07:38:00,
2013-01-13 02:43:00,47.7,46.9,29.75,NW,308,8.0,18.0,97,0.56,,---,0.56,VWS V14.01,2013-01-13 07:43:00,
2013-01-13 02:48:00,47.5,46.7,29.76,WNW,298,6.0,18.0,97,0.56,,---,0.56,VWS V14.01,2013-01-13 07:48:00,
2013-01-13 02:53:00,47.3,46.5,29.76,WNW,301,3.0,18.0,97,0.57,,---,0.57,VWS V14.01,2013-01-13 07:53:00,
2013-01-13 02:58:00,47.2,46.4,29.76,NW,317,2.0,18.0,97,0.57,,---,0.57,VWS V14.01,2013-01-13 07:58:00,
2013-01-13 03:00:00,47.1,46.3,29.76,NW,320,5.0,18.0,97,0.58,,---,0.58,VWS V14.01,2013-01-13 08:00:00,
2013-01-13 03:03:00,46.9,46.1,29.76,WNW,302,2.0,5.0,97,0.09,,---,0.58,VWS V14.01,2013-01-13 08:03:00,
2013-01-13 03:08:00,46.8,46.0,29.76,WNW,298,2.0,5.0,97,0.10,,---,0.59,VWS V14.01,2013-01-13 08:08:00,
2013-01-13 03:13:00,46.7,45.9,29.77,NW,325,3.0,5.0,97,0.11,,---,0.60,VWS V14.01,2013-01-13 08:13:00,
2013-01-13 03:18:00,46.7,45.9,29.77,West,271,1.0,5.0,97,0.11,,---,0.60,VWS V14.01,2013-01-13 08:18:00,
2013-01-13 03:23:00,46.7,45.9,29.78,WNW,283,2.0,6.0,97,0.12,,---,0.61,VWS V14.01,2013-01-13 08:23:00,
2013-01-13 03:28:00,46.7,45.9,29.78,NNE,32,0.0,6.0,97,0.13,,---,0.62,VWS V14.01,2013-01-13 08:28:00,
2013-01-13 03:33:00,46.7,45.9,29.79,WNW,288,2.0,6.0,97,0.14,,---,0.63,VWS V14.01,2013-01-13 08:33:00,
2013-01-13 03:38:00,46.6,45.8,29.79,WNW,290,1.0,6.0,97,0.15,,---,0.64,VWS V14.01,2013-01-13 08:38:00,
2013-01-13 03:43:00,46.6,45.8,29.80,West,280,10.0,10.0,97,0.16,,---,0.65,VWS V14.01,2013-01-13 08:43:00,
2013-01-13 03:48:00,46.7,45.9,29.83,West,279,14.0,15.0,97,0.17,,---,0.66,VWS V14.01,2013-01-13 08:48:00,
2013-01-13 03:53:00,46.1,45.3,29.84,West,278,14.0,20.0,97,0.18,,---,0.67,VWS V14.01,2013-01-13 08:53:00,
2013-01-13 03:58:00,45.4,44.6,29.84,WNW,287,11.0,20.0,97,0.19,,---,0.68,VWS V14.01,2013-01-13 08:58:00,
2013-01-13 04:00:00,45.3,44.5,29.85,West,278,15.0,20.0,97,0.19,,---,0.68,VWS V14.01,2013-01-13 09:00:00,
2013-01-13 04:03:00,45.1,44.3,29.85,WNW,291,9.0,15.0,97,0.11,,---,0.69,VWS V14.01,2013-01-13 09:03:00,
2013-01-13 04:08:00,44.8,44.0,29.84,WNW,298,10.0,16.0,97,0.12,,---,0.70,VWS V14.01,2013-01-13 09:08:00,
2013-01-13 04:13:00,44.3,43.2,29.83,WNW,288,6.0,16.0,96,0.13,,---,0.72,VWS V14.01,2013-01-13 09:13:00,
2013-01-13 04:18:00,44.1,43.0,29.84,WNW,288,4.0,16.0,96,0.15,,---,0.73,VWS V14.01,2013-01-13 09:18:00,
2013-01-13 04:23:00,43.9,42.8,29.83,WNW,293,2.0,16.0,96,0.17,,---,0.75,VWS V14.01,2013-01-13 09:23:00,
2013-01-13 04:28:00,43.8,43.0,29.85,WNW,300,7.0,16.0,97,0.18,,---,0.76,VWS V14.01,2013-01-13 09:28:00,
2013-01-13 04:33:00,43.8,43.0,29.84,NW,314,7.0,16.0,97,0.20,,---,0.78,VWS V14.01,2013-01-13 09:33:00,
2013-01-13 04:38:00,43.5,42.4,29.84,WNW,301,5.0,16.0,96,0.21,,---,0.79,VWS V14.01,2013-01-13 09:38:00,
2013-01-13 04:43:00,43.4,42.3,29.82,WNW,293,0.0,16.0,96,0.23,,---,0.81,VWS V14.01,2013-01-13 09:43:00,
2013-01-13 04:48:00,43.2,42.1,29.82,WNW,294,6.0,16.0,96,0.24,,---,0.82,VWS V14.01,2013-01-13 09:48:00,
2013-01-13 04:53:00,43.2,42.4,29.85,WNW,289,15.0,20.0,97,0.26,,---,0.84,VWS V14.01,2013-01-13 09:53:00,
2013-01-13 04:58:00,42.4,41.3,29.86,NW,304,14.0,20.0,96,0.28,,---,0.86,VWS V14.01,2013-01-13 09:58:00,
2013-01-13 05:00:00,42.2,41.1,29.86,WNW,293,14.0,20.0,96,0.29,,---,0.87,VWS V14.01,2013-01-13 10:00:00,
2013-01-13 05:03:00,41.7,40.7,29.86,NW,314,17.0,21.0,96,0.20,,---,0.88,VWS V14.01,2013-01-13 10:03:00,
2013-01-13 05:08:00,41.0,39.7,29.85,NW,318,6.0,21.0,95,0.21,,---,0.89,VWS V14.01,2013-01-13 10:08:00,
2013-01-13 05:13:00,40.6,39.5,29.84,NW,318,6.0,21.0,96,0.23,,---,0.91,VWS V14.01,2013-01-13 10:13:00,
2013-01-13 05:18:00,40.3,39.2,29.83,WNW,288,4.0,21.0,96,0.25,,---,0.93,VWS V14.01,2013-01-13 10:18:00,
2013-01-13 05:24:00,40.2,39.2,29.84,WNW,300,3.0,21.0,96,0.26,,---,0.94,VWS V14.01,2013-01-13 10:24:00,
2013-01-13 05:29:00,40.1,39.0,29.84,WNW,288,3.0,21.0,96,0.26,,---,0.94,VWS V14.01,2013-01-13 10:29:00,
2013-01-13 05:34:00,40.1,39.0,29.84,WNW,290,2.0,21.0,96,0.27,,---,0.95,VWS V14.01,2013-01-13 10:34:00,
2013-01-13 05:39:00,40.0,39.0,29.83,SSW,195,1.0,21.0,96,0.28,,---,0.96,VWS V14.01,2013-01-13 10:39:00,
2013-01-13 05:44:00,40.1,39.0,29.84,SW,224,1.0,21.0,96,0.29,,---,0.97,VWS V14.01,2013-01-13 10:44:00,
2013-01-13 05:49:00,40.0,39.0,29.87,NW,311,9.0,21.0,96,0.29,,---,0.97,VWS V14.01,2013-01-13 10:49:00,
2013-01-13 05:54:00,40.3,39.2,29.88,NW,308,7.0,21.0,96,0.29,,---,0.97,VWS V14.01,2013-01-13 10:54:00,
2013-01-13 05:59:00,40.4,39.3,29.89,WNW,294,7.0,21.0,96,0.30,,---,0.98,VWS V14.01,2013-01-13 10:59:00,
2013-01-13 06:00:00,40.4,39.3,29.90,WNW,283,5.0,21.0,96,0.30,,---,0.98,VWS V14.01,2013-01-13 11:00:00,
2013-01-13 06:04:00,40.5,39.5,29.90,WNW,288,7.0,10.0,96,0.11,,---,0.98,VWS V14.01,2013-01-13 11:04:00,
2013-01-13 06:09:00,40.4,39.3,29.89,WSW,257,5.0,13.0,96,0.12,,---,0.99,VWS V14.01,2013-01-13 11:09:00,
2013-01-13 06:14:00,40.2,39.2,29.89,WNW,299,7.0,13.0,96,0.13,,---,1.00,VWS V14.01,2013-01-13 11:14:00,
2013-01-13 06:19:00,40.0,39.0,29.88,NW,318,4.0,13.0,96,0.14,,---,1.01,VWS V14.01,2013-01-13 11:19:00,
2013-01-13 06:24:00,39.8,38.8,29.86,WNW,284,0.0,13.0,96,0.15,,---,1.02,VWS V14.01,2013-01-13 11:24:00,
2013-01-13 06:29:00,39.7,38.7,29.85,ENE,72,1.0,13.0,96,0.16,,---,1.03,VWS V14.01,2013-01-13 11:29:00,
2013-01-13 06:34:00,39.6,38.6,29.85,East,82,3.0,13.0,96,0.16,,---,1.03,VWS V14.01,2013-01-13 11:34:00,
2013-01-13 06:39:00,39.6,38.6,29.86,ESE,122,0.0,13.0,96,0.17,,---,1.04,VWS V14.01,2013-01-13 11:39:00,
2013-01-13 06:44:00,39.7,38.7,29.86,NW,326,0.0,13.0,96,0.17,,---,1.04,VWS V14.01,2013-01-13 11:44:00,
2013-01-13 06:49:00,39.7,38.9,29.88,NW,317,4.0,13.0,97,0.17,,---,1.04,VWS V14.01,2013-01-13 11:49:00,
2013-01-13 06:54:00,39.9,39.1,29.88,North,356,3.0,13.0,97,0.18,,---,1.05,VWS V14.01,2013-01-13 11:54:00,
2013-01-13 06:59:00,39.9,39.1,29.92,West,280,11.0,14.0,97,0.18,,---,1.05,VWS V14.01,2013-01-13 11:59:00,
2013-01-13 07:00:00,40.0,39.2,29.92,NW,304,16.0,16.0,97,0.18,,---,1.05,VWS V14.01,2013-01-13 12:00:00,
2013-01-13 07:04:00,39.9,39.1,29.85,ENE,64,4.0,11.0,97,0.07,,---,1.05,VWS V14.01,2013-01-13 12:04:00,
2013-01-13 07:09:00,39.9,39.1,29.94,WNW,287,9.0,21.0,97,0.07,,---,1.05,VWS V14.01,2013-01-13 12:09:00,
2013-01-13 07:14:00,39.6,38.6,29.93,NNW,329,7.0,21.0,96,0.07,,---,1.05,VWS V14.01,2013-01-13 12:14:00,
2013-01-13 07:19:00,39.4,38.4,29.91,NW,310,4.0,21.0,96,0.07,,---,1.05,VWS V14.01,2013-01-13 12:19:00,
2013-01-13 07:24:00,39.3,38.3,29.88,ENE,57,3.0,21.0,96,0.07,,---,1.05,VWS V14.01,2013-01-13 12:24:00,
2013-01-13 07:29:00,39.2,38.2,29.89,NW,312,5.0,21.0,96,0.08,,---,1.06,VWS V14.01,2013-01-13 12:29:00,
2013-01-13 07:34:00,39.3,38.3,29.89,NNW,339,5.0,21.0,96,0.08,,---,1.06,VWS V14.01,2013-01-13 12:34:00,
2013-01-13 07:39:00,39.2,38.2,29.88,NW,326,7.0,21.0,96,0.08,,---,1.06,VWS V14.01,2013-01-13 12:39:00,
2013-01-13 07:44:00,39.3,38.3,29.89,NNW,347,2.0,21.0,96,0.08,,---,1.06,VWS V14.01,2013-01-13 12:44:00,
2013-01-13 07:49:00,39.3,38.5,29.86,NNW,342,6.0,21.0,97,0.08,,---,1.06,VWS V14.01,2013-01-13 12:49:00,
2013-01-13 07:54:00,39.5,38.7,29.90,NNW,331,10.0,21.0,97,0.08,,---,1.06,VWS V14.01,2013-01-13 12:54:00,
2013-01-13 07:59:00,39.5,38.7,29.91,North,11,4.0,21.0,97,0.08,,---,1.06,VWS V14.01,2013-01-13 12:59:00,
2013-01-13 08:00:00,39.5,38.7,29.91,NNW,348,6.0,21.0,97,0.08,,---,1.06,VWS V14.01,2013-01-13 13:00:00,
2013-01-13 08:04:00,39.3,38.3,29.92,WNW,293,3.0,11.0,96,0.01,,---,1.06,VWS V14.01,2013-01-13 13:04:00,
2013-01-13 08:09:00,39.2,38.2,29.87,NNW,340,3.0,11.0,96,0.01,,---,1.06,VWS V14.01,2013-01-13 13:09:00,
2013-01-13 08:14:00,39.2,38.2,29.87,NNE,15,5.0,11.0,96,0.01,,---,1.06,VWS V14.01,2013-01-13 13:14:00,
2013-01-13 08:19:00,39.2,38.4,29.88,WNW,296,4.0,11.0,97,0.01,,---,1.06,VWS V14.01,2013-01-13 13:19:00,
2013-01-13 08:24:00,39.3,38.5,29.90,NNW,331,5.0,11.0,97,0.01,,---,1.06,VWS V14.01,2013-01-13 13:24:00,
2013-01-13 08:29:00,39.4,38.6,29.92,NW,318,6.0,11.0,97,0.01,,---,1.06,VWS V14.01,2013-01-13 13:29:00,
2013-01-13 08:34:00,39.5,38.7,29.92,WNW,298,4.0,11.0,97,0.01,,---,1.06,VWS V14.01,2013-01-13 13:34:00,
2013-01-13 08:39:00,39.5,38.7,29.92,WNW,285,2.0,11.0,97,0.01,,---,1.06,VWS V14.01,2013-01-13 13:39:00,
2013-01-13 08:44:00,39.4,38.6,29.91,NNE,33,1.0,11.0,97,0.01,,---,1.06,VWS V14.01,2013-01-13 13:44:00,
2013-01-13 08:49:00,39.5,38.7,29.88,NNW,339,2.0,11.0,97,0.01,,---,1.06,VWS V14.01,2013-01-13 13:49:00,
2013-01-13 08:54:00,39.5,38.7,29.91,NNW,333,5.0,11.0,97,0.01,,---,1.06,VWS V14.01,2013-01-13 13:54:00,
2013-01-13 08:59:00,39.6,38.8,29.92,NW,318,6.0,11.0,97,0.01,,---,1.06,VWS V14.01,2013-01-13 13:59:00,
2013-01-13 09:00:00,39.6,38.8,29.92,NW,304,4.0,11.0,97,0.01,,---,1.06,VWS V14.01,2013-01-13 14:00:00,
2013-01-13 09:04:00,39.6,38.8,29.92,NW,304,9.0,9.0,97,0.00,,---,1.06,VWS V14.01,2013-01-13 14:04:00,
2013-01-13 09:09:00,39.5,38.7,29.94,WNW,298,7.0,13.0,97,0.00,,---,1.06,VWS V14.01,2013-01-13 14:09:00,
2013-01-13 09:14:00,39.5,38.7,29.95,WNW,295,7.0,13.0,97,0.00,,---,1.06,VWS V14.01,2013-01-13 14:14:00,
2013-01-13 09:19:00,39.5,38.7,29.94,WNW,301,7.0,13.0,97,0.00,,---,1.06,VWS V14.01,2013-01-13 14:19:00,
2013-01-13 09:24:00,39.4,38.6,29.94,NW,308,2.0,13.0,97,0.00,,---,1.06,VWS V14.01,2013-01-13 14:24:00,
2013-01-13 09:29:00,39.3,38.5,29.93,WNW,300,5.0,13.0,97,0.00,,---,1.06,VWS V14.01,2013-01-13 14:29:00,
2013-01-13 09:34:00,39.3,38.5,29.93,NW,312,4.0,13.0,97,0.00,,---,1.06,VWS V14.01,2013-01-13 14:34:00,
2013-01-13 09:39:00,39.2,38.4,29.93,NW,314,4.0,13.0,97,0.00,,---,1.06,VWS V14.01,2013-01-13 14:39:00,
2013-01-13 09:44:00,39.2,38.4,29.94,NW,318,7.0,13.0,97,0.01,,---,1.07,VWS V14.01,2013-01-13 14:44:00,
2013-01-13 09:49:00,39.1,38.3,29.94,NW,310,4.0,13.0,97,0.01,,---,1.07,VWS V14.01,2013-01-13 14:49:00,
2013-01-13 09:54:00,39.1,38.3,29.94,NW,325,4.0,13.0,97,0.01,,---,1.07,VWS V14.01,2013-01-13 14:54:00,
2013-01-13 09:59:00,39.1,38.3,29.94,NW,314,5.0,13.0,97,0.02,,---,1.08,VWS V14.01,2013-01-13 14:59:00,
2013-01-13 10:00:00,39.1,38.3,29.94,NW,314,5.0,13.0,97,0.02,,---,1.08,VWS V14.01,2013-01-13 15:00:00,
2013-01-13 10:04:00,39.1,38.3,29.94,WNW,300,5.0,6.0,97,0.02,,---,1.08,VWS V14.01,2013-01-13 15:04:00,
2013-01-13 10:09:00,39.0,38.2,29.95,NW,307,3.0,10.0,97,0.02,,---,1.08,VWS V14.01,2013-01-13 15:09:00,
2013-01-13 10:14:00,38.9,38.1,29.95,NW,318,4.0,10.0,97,0.02,,---,1.08,VWS V14.01,2013-01-13 15:14:00,
2013-01-13 10:19:00,38.8,38.0,29.94,NW,307,3.0,10.0,97,0.03,,---,1.09,VWS V14.01,2013-01-13 15:19:00,
2013-01-13 10:24:00,38.8,38.0,29.94,NW,318,3.0,10.0,97,0.03,,---,1.09,VWS V14.01,2013-01-13 15:24:00,
2013-01-13 10:29:00,38.9,38.1,29.93,NW,314,6.0,10.0,97,0.03,,---,1.09,VWS V14.01,2013-01-13 15:29:00,
2013-01-13 10:34:00,39.0,38.2,29.93,NNW,343,3.0,10.0,97,0.03,,---,1.09,VWS V14.01,2013-01-13 15:34:00,
2013-01-13 10:39:00,38.9,38.1,29.93,NNW,335,4.0,10.0,97,0.03,,---,1.09,VWS V14.01,2013-01-13 15:39:00,
2013-01-13 10:44:00,38.8,38.0,29.93,NNW,327,8.0,10.0,97,0.03,,---,1.09,VWS V14.01,2013-01-13 15:44:00,
2013-01-13 10:49:00,38.8,38.0,29.93,NW,316,5.0,10.0,97,0.03,,---,1.09,VWS V14.01,2013-01-13 15:49:00,
2013-01-13 10:54:00,38.8,38.0,29.93,NNW,335,2.0,10.0,97,0.03,,---,1.09,VWS V14.01,2013-01-13 15:54:00,
2013-01-13 10:59:00,38.7,37.9,29.94,NNW,333,4.0,10.0,97,0.03,,---,1.09,VWS V14.01,2013-01-13 15:59:00,
2013-01-13 11:00:00,38.7,37.9,29.94,NNW,333,4.0,10.0,97,0.03,,---,1.09,VWS V14.01,2013-01-13 16:00:00,
2013-01-13 11:04:00,38.7,37.9,29.95,NW,314,5.0,7.0,97,0.01,,---,1.09,VWS V14.01,2013-01-13 16:04:00,
2013-01-13 11:09:00,38.7,37.9,29.95,WNW,296,3.0,7.0,97,0.01,,---,1.09,VWS V14.01,2013-01-13 16:09:00,
2013-01-13 11:14:00,38.7,37.9,29.95,NW,319,5.0,7.0,97,0.01,,---,1.09,VWS V14.01,2013-01-13 16:14:00,
2013-01-13 11:19:00,38.6,37.8,29.95,WNW,301,6.0,8.0,97,0.01,,---,1.09,VWS V14.01,2013-01-13 16:19:00,
2013-01-13 11:24:00,38.6,37.8,29.95,WNW,300,6.0,8.0,97,0.01,,---,1.09,VWS V14.01,2013-01-13 16:24:00,
2013-01-13 11:29:00,38.5,37.7,29.95,NW,316,3.0,8.0,97,0.01,,---,1.09,VWS V14.01,2013-01-13 16:29:00,
2013-01-13 11:34:00,38.5,37.7,29.95,NW,316,5.0,8.0,97,0.01,,---,1.09,VWS V14.01,2013-01-13 16:34:00,
2013-01-13 11:39:00,38.5,37.7,29.94,NW,309,4.0,8.0,97,0.01,,---,1.09,VWS V14.01,2013-01-13 16:39:00,
2013-01-13 11:45:00,38.4,37.6,29.94,NW,326,7.0,9.0,97,0.01,,---,1.09,VWS V14.01,2013-01-13 16:45:00,
2013-01-13 11:50:00,38.4,37.6,29.94,NW,315,7.0,10.0,97,0.01,,---,1.09,VWS V14.01,2013-01-13 16:50:00,
2013-01-13 11:55:00,38.3,37.5,29.94,NW,323,6.0,10.0,97,0.01,,---,1.09,VWS V14.01,2013-01-13 16:55:00,
2013-01-13 12:00:00,38.2,37.4,29.95,NW,316,5.0,5.0,97,0.00,,---,1.09,VWS V14.01,2013-01-13 17:00:00,
2013-01-13 12:05:00,38.1,37.3,29.95,NNW,327,5.0,11.0,97,0.00,,---,1.09,VWS V14.01,2013-01-13 17:05:00,
2013-01-13 12:10:00,38.1,37.3,29.95,NW,306,5.0,11.0,97,0.00,,---,1.09,VWS V14.01,2013-01-13 17:10:00,
2013-01-13 12:15:00,38.0,37.2,29.94,NW,314,6.0,13.0,97,0.00,,---,1.09,VWS V14.01,2013-01-13 17:15:00,
2013-01-13 12:20:00,37.9,37.1,29.94,NW,314,5.0,13.0,97,0.00,,---,1.09,VWS V14.01,2013-01-13 17:20:00,
2013-01-13 12:25:00,37.9,37.1,29.93,NW,326,7.0,13.0,97,0.01,,---,1.10,VWS V14.01,2013-01-13 17:25:00,
2013-01-13 12:30:00,38.0,37.2,29.93,NW,316,8.0,13.0,97,0.01,,---,1.10,VWS V14.01,2013-01-13 17:30:00,
2013-01-13 12:35:00,37.9,37.1,29.92,NW,311,3.0,13.0,97,0.01,,---,1.10,VWS V14.01,2013-01-13 17:35:00,
2013-01-13 12:40:00,37.9,37.1,29.91,NNW,331,5.0,13.0,97,0.01,,---,1.10,VWS V14.01,2013-01-13 17:40:00,
2013-01-13 12:45:00,37.8,37.0,29.90,WNW,301,4.0,13.0,97,0.01,,---,1.10,VWS V14.01,2013-01-13 17:45:00,
2013-01-13 12:50:00,37.7,36.9,29.90,NNW,341,1.0,13.0,97,0.01,,---,1.10,VWS V14.01,2013-01-13 17:50:00,
2013-01-13 12:55:00,37.7,36.9,29.89,NE,34,1.0,13.0,97,0.01,,---,1.10,VWS V14.01,2013-01-13 17:55:00,
2013-01-13 13:00:00,38.0,37.2,29.88,NNE,28,3.0,4.0,97,0.01,,---,1.10,VWS V14.01,2013-01-13 18:00:00,
2013-01-13 13:05:00,38.0,37.2,29.87,ESE,113,3.0,6.0,97,0.01,,---,1.10,VWS V14.01,2013-01-13 18:05:00,
2013-01-13 13:10:00,37.9,37.1,29.87,NE,37,1.0,6.0,97,0.02,,---,1.11,VWS V14.01,2013-01-13 18:10:00,
2013-01-13 13:15:00,37.9,37.1,29.85,ENE,70,2.0,6.0,97,0.02,,---,1.11,VWS V14.01,2013-01-13 18:15:00,
2013-01-13 13:20:00,37.9,37.1,29.85,ENE,74,5.0,6.0,97,0.03,,---,1.12,VWS V14.01,2013-01-13 18:20:00,
2013-01-13 13:25:00,37.9,37.1,29.86,ENE,74,2.0,6.0,97,0.07,,---,1.16,VWS V14.01,2013-01-13 18:25:00,
2013-01-13 13:30:00,38.0,37.2,29.86,ESE,103,1.0,6.0,97,0.10,,---,1.19,VWS V14.01,2013-01-13 18:30:00,
2013-01-13 13:35:00,37.9,37.1,29.84,NE,37,4.0,8.0,97,0.12,,---,1.21,VWS V14.01,2013-01-13 18:35:00,
2013-01-13 13:40:00,38.0,37.2,29.85,NE,54,1.0,8.0,97,0.12,,---,1.21,VWS V14.01,2013-01-13 18:40:00,
2013-01-13 13:45:00,38.1,37.3,29.86,WNW,293,1.0,8.0,97,0.12,,---,1.21,VWS V14.01,2013-01-13 18:45:00,
2013-01-13 13:50:00,38.1,37.3,29.90,West,270,7.0,8.0,97,0.12,,---,1.21,VWS V14.01,2013-01-13 18:50:00,
2013-01-13 13:55:00,38.5,37.7,29.92,West,271,12.0,13.0,97,0.12,,---,1.21,VWS V14.01,2013-01-13 18:55:00,
2013-01-13 14:00:00,38.3,37.5,29.93,WNW,283,9.0,13.0,97,0.12,,---,1.22,VWS V14.01,2013-01-13 19:00:00,
2013-01-13 14:05:00,38.0,37.2,29.94,NW,304,14.0,16.0,97,0.12,,---,1.22,VWS V14.01,2013-01-13 19:05:00,
2013-01-13 14:10:00,37.6,36.8,29.94,NW,305,12.0,17.0,97,0.13,,---,1.23,VWS V14.01,2013-01-13 19:10:00,
2013-01-13 14:15:00,37.2,36.4,29.94,NW,314,13.0,19.0,97,0.14,,---,1.24,VWS V14.01,2013-01-13 19:15:00,
2013-01-13 14:20:00,36.7,35.7,29.95,WNW,293,14.0,20.0,96,0.16,,---,1.26,VWS V14.01,2013-01-13 19:20:00,
2013-01-13 14:25:00,36.4,35.4,29.95,WNW,302,13.0,20.0,96,0.17,,---,1.27,VWS V14.01,2013-01-13 19:25:00,
2013-01-13 14:30:00,36.2,35.2,29.95,WNW,300,10.0,20.0,96,0.18,,---,1.28,VWS V14.01,2013-01-13 19:30:00,
2013-01-13 14:35:00,35.8,34.8,29.95,WNW,291,13.0,20.0,96,0.19,,---,1.29,VWS V14.01,2013-01-13 19:35:00,
2013-01-13 14:40:00,35.2,33.9,29.96,NW,309,16.0,23.0,95,0.20,,---,1.30,VWS V14.01,2013-01-13 19:40:00,
2013-01-13 14:45:00,34.5,33.0,29.97,WNW,302,8.0,23.0,94,0.21,,---,1.31,VWS V14.01,2013-01-13 19:45:00,
2013-01-13 14:50:00,34.0,32.5,29.97,NW,304,10.0,23.0,94,0.22,,---,1.32,VWS V14.01,2013-01-13 19:50:00,
2013-01-13 14:55:00,33.4,31.6,29.97,WNW,291,10.0,23.0,93,0.23,,---,1.33,VWS V14.01,2013-01-13 19:55:00,
2013-01-13 15:00:00,33.2,31.7,29.96,NW,305,7.0,13.0,94,0.12,,---,1.34,VWS V14.01,2013-01-13 20:00:00,
2013-01-13 15:05:00,33.2,31.7,29.96,NW,320,13.0,16.0,94,0.12,,---,1.34,VWS V14.01,2013-01-13 20:05:00,
2013-01-13 15:10:00,33.2,31.7,29.97,WNW,283,9.0,16.0,94,0.13,,---,1.35,VWS V14.01,2013-01-13 20:10:00,
2013-01-13 15:15:00,33.0,31.5,29.96,WNW,299,14.0,16.0,94,0.14,,---,1.36,VWS V14.01,2013-01-13 20:15:00,
2013-01-13 15:20:00,33.0,31.7,29.97,NW,304,11.0,16.0,95,0.15,,---,1.37,VWS V14.01,2013-01-13 20:20:00,
2013-01-13 15:25:00,33.0,31.7,29.96,NW,318,11.0,16.0,95,0.16,,---,1.38,VWS V14.01,2013-01-13 20:25:00,
2013-01-13 15:30:00,32.7,31.4,29.96,NW,320,8.0,16.0,95,0.18,,---,1.40,VWS V14.01,2013-01-13 20:30:00,
2013-01-13 15:35:00,32.7,31.4,29.95,NW,326,12.0,16.0,95,0.21,,---,1.43,VWS V14.01,2013-01-13 20:35:00,
2013-01-13 15:40:00,32.4,31.1,29.97,NW,317,10.0,16.0,95,0.23,,---,1.45,VWS V14.01,2013-01-13 20:40:00,
2013-01-13 15:45:00,32.3,31.0,29.98,WNW,300,7.0,16.0,95,0.25,,---,1.47,VWS V14.01,2013-01-13 20:45:00,
2013-01-13 15:50:00,32.3,31.0,29.98,NW,312,5.0,16.0,95,0.26,,---,1.48,VWS V14.01,2013-01-13 20:50:00,
2013-01-13 15:55:00,32.2,30.9,29.98,NNW,340,6.0,16.0,95,0.27,,---,1.49,VWS V14.01,2013-01-13 20:55:00,
2013-01-13 16:00:00,32.1,30.8,29.97,NW,322,8.0,11.0,95,0.15,,---,1.49,VWS V14.01,2013-01-13 21:00:00,
2013-01-13 16:05:00,32.0,30.7,29.98,NW,324,8.0,15.0,95,0.16,,---,1.50,VWS V14.01,2013-01-13 21:05:00,
2013-01-13 16:10:00,32.0,30.7,29.98,WNW,297,8.0,15.0,95,0.16,,---,1.50,VWS V14.01,2013-01-13 21:10:00,
2013-01-13 16:15:00,32.1,30.8,29.98,NW,321,8.0,15.0,95,0.17,,---,1.51,VWS V14.01,2013-01-13 21:15:00,
2013-01-13 16:20:00,32.1,30.8,29.98,NW,318,7.0,15.0,95,0.17,,---,1.51,VWS V14.01,2013-01-13 21:20:00,
2013-01-13 16:25:00,32.1,30.8,29.98,NW,318,9.0,15.0,95,0.18,,---,1.52,VWS V14.01,2013-01-13 21:25:00,
2013-01-13 16:30:00,32.0,30.7,29.99,WNW,302,8.0,15.0,95,0.18,,---,1.52,VWS V14.01,2013-01-13 21:30:00,
2013-01-13 16:35:00,32.0,30.7,29.99,NNW,328,7.0,16.0,95,0.18,,---,1.52,VWS V14.01,2013-01-13 21:35:00,
2013-01-13 16:40:00,32.0,30.7,30.00,NNW,343,6.0,16.0,95,0.18,,---,1.52,VWS V14.01,2013-01-13 21:40:00,
2013-01-13 16:45:00,32.0,30.7,30.00,NNW,329,10.0,16.0,95,0.18,,---,1.52,VWS V14.01,2013-01-13 21:45:00,
2013-01-13 16:50:00,32.0,30.7,30.01,NW,307,5.0,16.0,95,0.18,,---,1.52,VWS V14.01,2013-01-13 21:50:00,
2013-01-13 16:55:00,32.0,30.5,30.01,WNW,298,4.0,16.0,94,0.18,,---,1.52,VWS V14.01,2013-01-13 21:55:00,
2013-01-13 17:00:00,32.0,30.5,30.02,WNW,293,7.0,8.0,94,0.03,,---,1.52,VWS V14.01,2013-01-13 22:00:00,
2013-01-13 17:06:00,32.1,30.8,30.02,WNW,302,10.0,11.0,95,0.03,,---,1.52,VWS V14.01,2013-01-13 22:06:00,
2013-01-13 17:11:00,32.1,30.8,30.02,NW,308,4.0,12.0,95,0.03,,---,1.52,VWS V14.01,2013-01-13 22:11:00,
2013-01-13 17:16:00,32.2,30.9,30.03,NW,318,9.0,12.0,95,0.03,,---,1.52,VWS V14.01,2013-01-13 22:16:00,
2013-01-13 17:21:00,32.2,30.9,30.03,NW,307,12.0,12.0,95,0.03,,---,1.52,VWS V14.01,2013-01-13 22:21:00,
2013-01-13 17:26:00,32.1,30.6,30.04,NW,322,7.0,15.0,94,0.03,,---,1.52,VWS V14.01,2013-01-13 22:26:00,
2013-01-13 17:31:00,32.2,30.7,30.04,WNW,293,7.0,15.0,94,0.03,,---,1.52,VWS V14.01,2013-01-13 22:31:00,
2013-01-13 17:36:00,32.2,30.7,30.04,NW,312,6.0,17.0,94,0.03,,---,1.52,VWS V14.01,2013-01-13 22:36:00,
2013-01-13 17:41:00,32.3,30.8,30.04,NW,311,4.0,17.0,94,0.03,,---,1.52,VWS V14.01,2013-01-13 22:41:00,
2013-01-13 17:46:00,32.3,30.8,30.04,NW,311,9.0,17.0,94,0.03,,---,1.52,VWS V14.01,2013-01-13 22:46:00,
2013-01-13 17:51:00,32.2,30.7,30.04,NW,308,3.0,17.0,94,0.03,,---,1.52,VWS V14.01,2013-01-13 22:51:00,
2013-01-13 17:56:00,32.2,30.7,30.05,NW,311,7.0,17.0,94,0.03,,---,1.52,VWS V14.01,2013-01-13 22:56:00,
2013-01-13 18:00:00,32.2,30.7,30.05,NW,304,10.0,17.0,94,0.03,,---,1.52,VWS V14.01,2013-01-13 23:00:00,
2013-01-13 18:01:00,32.2,30.4,30.05,NW,309,5.0,9.0,93,0.00,,---,1.52,VWS V14.01,2013-01-13 23:01:00,
2013-01-13 18:06:00,32.2,30.4,30.05,NW,309,7.0,12.0,93,0.00,,---,1.52,VWS V14.01,2013-01-13 23:06:00,
2013-01-13 18:11:00,32.2,30.7,30.05,WNW,300,4.0,13.0,94,0.00,,---,1.52,VWS V14.01,2013-01-13 23:11:00,
2013-01-13 18:16:00,32.1,30.3,30.06,NW,308,7.0,15.0,93,0.00,,---,1.52,VWS V14.01,2013-01-13 23:16:00,
2013-01-13 18:21:00,32.0,30.2,30.06,WNW,300,10.0,16.0,93,0.00,,---,1.52,VWS V14.01,2013-01-13 23:21:00,
2013-01-13 18:26:00,31.9,30.1,30.06,NW,304,11.0,16.0,93,0.00,,---,1.52,VWS V14.01,2013-01-13 23:26:00,
2013-01-13 18:31:00,31.9,30.1,30.06,WNW,302,13.0,17.0,93,0.00,,---,1.52,VWS V14.01,2013-01-13 23:31:00,
2013-01-13 18:36:00,31.9,30.1,30.07,NW,321,7.0,17.0,93,0.00,,---,1.52,VWS V14.01,2013-01-13 23:36:00,
2013-01-13 18:41:00,31.8,30.0,30.07,WNW,297,7.0,17.0,93,0.00,,---,1.52,VWS V14.01,2013-01-13 23:41:00,
2013-01-13 18:46:00,31.8,30.0,30.08,NW,304,9.0,17.0,93,0.00,,---,1.52,VWS V14.01,2013-01-13 23:46:00,
2013-01-13 18:51:00,31.8,30.0,30.09,NW,312,8.0,17.0,93,0.00,,---,1.52,VWS V14.01,2013-01-13 23:51:00,
2013-01-13 18:56:00,31.8,30.3,30.09,NW,308,11.0,17.0,94,0.00,,---,1.52,VWS V14.01,2013-01-13 23:56:00,
2013-01-13 19:00:00,31.8,30.3,30.09,WNW,297,9.0,17.0,94,0.00,,---,1.52,VWS V14.01,2013-01-14 00:00:00,
2013-01-13 19:01:00,31.7,30.2,30.08,NW,314,5.0,10.0,94,0.00,,---,1.52,VWS V14.01,2013-01-14 00:01:00,
2013-01-13 19:06:00,31.6,30.1,30.09,NW,304,13.0,14.0,94,0.00,,---,1.52,VWS V14.01,2013-01-14 00:06:00,
2013-01-13 19:11:00,31.4,29.6,30.10,West,281,4.0,14.0,93,0.00,,---,1.52,VWS V14.01,2013-01-14 00:11:00,
2013-01-13 19:16:00,31.3,29.5,30.10,WNW,293,14.0,16.0,93,0.00,,---,1.52,VWS V14.01,2013-01-14 00:16:00,
2013-01-13 19:21:00,31.0,29.2,30.11,NW,307,10.0,16.0,93,0.00,,---,1.52,VWS V14.01,2013-01-14 00:21:00,
2013-01-13 19:26:00,30.9,28.9,30.10,WNW,287,6.0,17.0,92,0.00,,---,1.52,VWS V14.01,2013-01-14 00:26:00,
2013-01-13 19:31:00,30.8,28.8,30.10,NW,312,6.0,17.0,92,0.00,,---,1.52,VWS V14.01,2013-01-14 00:31:00,
2013-01-13 19:36:00,30.7,28.9,30.11,WNW,300,10.0,17.0,93,0.00,,---,1.52,VWS V14.01,2013-01-14 00:36:00,
2013-01-13 19:41:00,30.7,28.9,30.11,NW,321,11.0,17.0,93,0.00,,---,1.52,VWS V14.01,2013-01-14 00:41:00,
2013-01-13 19:46:00,30.6,28.8,30.12,NW,318,12.0,18.0,93,0.00,,---,1.52,VWS V14.01,2013-01-14 00:46:00,
2013-01-13 19:51:00,30.4,28.6,30.11,WNW,283,10.0,18.0,93,0.00,,---,1.52,VWS V14.01,2013-01-14 00:51:00,
2013-01-13 19:56:00,30.3,28.5,30.12,WNW,300,17.0,19.0,93,0.00,,---,1.52,VWS V14.01,2013-01-14 00:56:00,
2013-01-13 20:00:00,30.2,28.2,30.13,NW,326,5.0,19.0,92,0.00,,---,1.52,VWS V14.01,2013-01-14 01:00:00,
2013-01-13 20:01:00,30.1,28.1,30.13,NW,326,12.0,15.0,92,0.00,,---,1.52,VWS V14.01,2013-01-14 01:01:00,
2013-01-13 20:06:00,30.0,28.0,30.13,WNW,295,8.0,16.0,92,0.00,,---,1.52,VWS V14.01,2013-01-14 01:06:00,
2013-01-13 20:11:00,29.9,28.1,30.13,West,279,10.0,16.0,93,0.00,,---,1.52,VWS V14.01,2013-01-14 01:11:00,
2013-01-13 20:16:00,29.6,27.6,30.13,NW,307,8.0,18.0,92,0.00,,---,1.52,VWS V14.01,2013-01-14 01:16:00,
2013-01-13 20:21:00,29.4,27.4,30.13,WNW,298,3.0,18.0,92,0.00,,---,1.52,VWS V14.01,2013-01-14 01:21:00,
2013-01-13 20:26:00,29.2,27.2,30.14,NW,312,9.0,19.0,92,0.00,,---,1.52,VWS V14.01,2013-01-14 01:26:00,
2013-01-13 20:31:00,29.0,26.7,30.14,NW,308,9.0,19.0,91,0.00,,---,1.52,VWS V14.01,2013-01-14 01:31:00,
2013-01-13 20:36:00,28.7,26.4,30.15,WNW,293,5.0,19.0,91,0.00,,---,1.52,VWS V14.01,2013-01-14 01:36:00,
2013-01-13 20:41:00,28.6,26.3,30.15,NW,308,6.0,19.0,91,0.00,,---,1.52,VWS V14.01,2013-01-14 01:41:00,
2013-01-13 20:46:00,28.5,26.2,30.15,WNW,294,9.0,19.0,91,0.00,,---,1.52,VWS V14.01,2013-01-14 01:46:00,
2013-01-13 20:51:00,28.3,26.0,30.15,WNW,295,13.0,19.0,91,0.00,,---,1.52,VWS V14.01,2013-01-14 01:51:00,
2013-01-13 20:56:00,28.2,25.9,30.15,NW,318,17.0,20.0,91,0.00,,---,1.52,VWS V14.01,2013-01-14 01:56:00,
2013-01-13 21:00:00,28.0,25.5,30.15,NW,312,15.0,22.0,90,0.00,,---,1.52,VWS V14.01,2013-01-14 02:00:00,
2013-01-13 21:01:00,28.0,25.7,30.15,NW,309,10.0,18.0,91,0.00,,---,1.52,VWS V14.01,2013-01-14 02:01:00,
2013-01-13 21:06:00,27.9,25.4,30.15,NNW,335,11.0,18.0,90,0.00,,---,1.52,VWS V14.01,2013-01-14 02:06:00,
2013-01-13 21:11:00,27.8,25.2,30.15,NW,326,8.0,18.0,90,0.00,,---,1.52,VWS V14.01,2013-01-14 02:11:00,
2013-01-13 21:16:00,27.7,25.2,30.16,NW,308,7.0,18.0,90,0.00,,---,1.52,VWS V14.01,2013-01-14 02:16:00,
2013-01-13 21:21:00,27.6,24.8,30.16,WNW,297,11.0,18.0,89,0.00,,---,1.52,VWS V14.01,2013-01-14 02:21:00,
2013-01-13 21:26:00,27.5,24.1,30.17,WNW,295,13.0,19.0,87,0.00,,---,1.52,VWS V14.01,2013-01-14 02:26:00,
2013-01-13 21:31:00,27.5,23.9,30.17,NW,323,7.0,23.0,86,0.00,,---,1.52,VWS V14.01,2013-01-14 02:31:00,
2013-01-13 21:36:00,27.4,23.5,30.17,NW,314,9.0,23.0,85,0.00,,---,1.52,VWS V14.01,2013-01-14 02:36:00,
2013-01-13 21:41:00,27.3,24.0,30.18,NW,311,11.0,23.0,87,0.00,,---,1.52,VWS V14.01,2013-01-14 02:41:00,
2013-01-13 21:47:00,27.3,24.0,30.18,NW,304,11.0,23.0,87,0.00,,---,1.52,VWS V14.01,2013-01-14 02:47:00,
2013-01-13 21:52:00,26.9,23.3,30.18,WNW,295,19.0,23.0,86,0.00,,---,1.52,VWS V14.01,2013-01-14 02:52:00,
2013-01-13 21:57:00,26.3,22.1,30.18,WNW,299,17.0,23.0,84,0.00,,---,1.52,VWS V14.01,2013-01-14 02:57:00,
2013-01-13 22:00:00,26.1,22.2,30.18,NW,314,13.0,23.0,85,0.00,,---,1.52,VWS V14.01,2013-01-14 03:00:00,
2013-01-13 22:02:00,25.9,22.0,30.18,NW,305,18.0,20.0,85,0.00,,---,1.52,VWS V14.01,2013-01-14 03:02:00,
2013-01-13 22:07:00,25.6,21.5,30.19,WNW,301,10.0,20.0,84,0.00,,---,1.52,VWS V14.01,2013-01-14 03:07:00,
2013-01-13 22:12:00,25.4,21.5,30.19,WNW,290,8.0,20.0,85,0.00,,---,1.52,VWS V14.01,2013-01-14 03:12:00,
2013-01-13 22:17:00,25.4,21.8,30.20,WNW,293,9.0,20.0,86,0.00,,---,1.52,VWS V14.01,2013-01-14 03:17:00,
2013-01-13 22:22:00,25.3,22.0,30.20,NW,314,5.0,20.0,87,0.00,,---,1.52,VWS V14.01,2013-01-14 03:22:00,
2013-01-13 22:27:00,25.2,21.9,30.20,NW,305,4.0,20.0,87,0.00,,---,1.52,VWS V14.01,2013-01-14 03:27:00,
2013-01-13 22:32:00,25.2,22.1,30.20,WNW,293,7.0,20.0,88,0.00,,---,1.52,VWS V14.01,2013-01-14 03:32:00,
2013-01-13 22:37:00,24.9,21.6,30.21,WNW,300,15.0,20.0,87,0.00,,---,1.52,VWS V14.01,2013-01-14 03:37:00,
2013-01-13 22:42:00,24.5,20.6,30.21,NW,312,6.0,20.0,85,0.00,,---,1.52,VWS V14.01,2013-01-14 03:42:00,
2013-01-13 22:47:00,24.3,20.5,30.21,WNW,297,11.0,20.0,85,0.00,,---,1.52,VWS V14.01,2013-01-14 03:47:00,
2013-01-13 22:52:00,24.1,20.2,30.22,NW,304,14.0,20.0,85,0.00,,---,1.52,VWS V14.01,2013-01-14 03:52:00,
2013-01-13 22:57:00,24.0,20.4,30.23,NW,311,8.0,20.0,86,0.00,,---,1.52,VWS V14.01,2013-01-14 03:57:00,
2013-01-13 23:00:00,23.9,20.1,30.23,NW,305,12.0,20.0,85,0.00,,---,1.52,VWS V14.01,2013-01-14 04:00:00,
2013-01-13 23:02:00,23.9,20.3,30.23,NW,307,10.0,13.0,86,0.00,,---,1.52,VWS V14.01,2013-01-14 04:02:00,
2013-01-13 23:07:00,23.9,20.3,30.23,NW,307,8.0,14.0,86,0.00,,---,1.52,VWS V14.01,2013-01-14 04:07:00,
2013-01-13 23:12:00,23.9,20.3,30.24,WNW,295,10.0,16.0,86,0.00,,---,1.52,VWS V14.01,2013-01-14 04:12:00,
2013-01-13 23:17:00,23.8,20.2,30.24,NW,319,6.0,16.0,86,0.00,,---,1.52,VWS V14.01,2013-01-14 04:17:00,
2013-01-13 23:22:00,23.8,20.5,30.24,WNW,303,12.0,16.0,87,0.00,,---,1.52,VWS V14.01,2013-01-14 04:22:00,
2013-01-13 23:27:00,23.8,20.5,30.24,NW,319,7.0,16.0,87,0.00,,---,1.52,VWS V14.01,2013-01-14 04:27:00,
2013-01-13 23:32:00,23.7,20.4,30.25,NW,323,4.0,16.0,87,0.00,,---,1.52,VWS V14.01,2013-01-14 04:32:00,
2013-01-13 23:37:00,23.6,20.3,30.25,WNW,298,10.0,16.0,87,0.00,,---,1.52,VWS V14.01,2013-01-14 04:37:00,
2013-01-13 23:42:00,23.4,19.8,30.25,WNW,285,11.0,17.0,86,0.00,,---,1.52,VWS V14.01,2013-01-14 04:42:00,
2013-01-13 23:47:00,23.4,20.1,30.25,WNW,285,11.0,17.0,87,0.00,,---,1.52,VWS V14.01,2013-01-14 04:47:00,
2013-01-13 23:52:00,23.2,19.9,30.25,WNW,303,5.0,17.0,87,0.00,,---,1.52,VWS V14.01,2013-01-14 04:52:00,
2013-01-13 23:57:00,23.1,19.5,30.25,NW,310,10.0,17.0,86,0.00,,---,1.52,VWS V14.01,2013-01-14 04:57:00,